Time;durP1;ratioP1;P1;durP2;ratioP2;P2;SDS_P1;SDS_P2;PMS_P1;PMS_P2;Temp;Humidity;BMP_temperature;BMP_pressure;BME280_temperature;BME280_humidity;BME280_pressure;Samples;Min_cycle;Max_cycle;Signal;HPM_P1;HPM_P2
2022/11/07 00:00:27;;;;;;;6.70;1.90;;;10.30;99.90;;;;;;5054306;28;20209;-60
2022/11/07 00:02:53;;;;;;;4.90;2.07;;;10.30;99.90;;;;;;5053989;28;20275;-60
2022/11/07 00:05:22;;;;;;;3.33;2.03;;;10.30;99.90;;;;;;5054013;28;20229;-60
2022/11/07 00:07:48;;;;;;;4.27;2.10;;;10.20;99.90;;;;;;5053619;28;20233;-60
2022/11/07 00:10:15;;;;;;;3.23;2.07;;;10.30;99.90;;;;;;5053897;28;20271;-60
2022/11/07 00:12:42;;;;;;;4.83;1.90;;;10.30;99.90;;;;;;5053784;28;20225;-60
2022/11/07 00:15:09;;;;;;;2.57;1.60;;;10.30;99.90;;;;;;5054043;28;20260;-60
2022/11/07 00:17:36;;;;;;;4.07;1.70;;;10.30;99.90;;;;;;5053426;28;20733;-60
2022/11/07 00:20:03;;;;;;;2.20;1.50;;;10.30;99.90;;;;;;5053809;28;20798;-60
2022/11/07 00:22:31;;;;;;;2.50;1.80;;;10.30;99.90;;;;;;5053620;28;20237;-60
2022/11/07 00:24:58;;;;;;;3.17;1.27;;;10.30;99.90;;;;;;5053578;28;20205;-60
2022/11/07 00:27:24;;;;;;;2.83;1.30;;;10.40;99.90;;;;;;5053455;28;20604;-60
2022/11/07 00:29:51;;;;;;;4.27;1.77;;;10.40;99.90;;;;;;5053739;28;20206;-60
2022/11/07 00:32:18;;;;;;;3.30;1.70;;;10.40;99.90;;;;;;5053831;28;20287;-60
2022/11/07 00:34:44;;;;;;;2.00;1.57;;;10.40;99.90;;;;;;5053583;28;20205;-60
2022/11/07 00:37:11;;;;;;;2.17;1.40;;;10.40;99.90;;;;;;5053269;28;20206;-60
2022/11/07 00:39:39;;;;;;;8.20;2.00;;;10.40;99.90;;;;;;5053241;28;20209;-60
2022/11/07 00:42:06;;;;;;;2.77;1.77;;;10.40;99.90;;;;;;5052344;28;20658;-60
2022/11/07 00:44:32;;;;;;;3.17;1.50;;;10.50;99.90;;;;;;5053344;28;20210;-60
2022/11/07 00:46:59;;;;;;;3.70;1.63;;;10.50;99.90;;;;;;5053023;28;20229;-60
2022/11/07 00:49:25;;;;;;;4.67;2.10;;;10.50;99.90;;;;;;5053220;28;20220;-60
2022/11/07 00:51:52;;;;;;;2.57;1.40;;;10.50;99.90;;;;;;5052942;28;20237;-60
2022/11/07 00:54:19;;;;;;;2.57;1.40;;;10.50;99.90;;;;;;5052859;28;20209;-60
2022/11/07 00:56:47;;;;;;;2.63;1.73;;;10.50;99.90;;;;;;5052947;28;20209;-60
2022/11/07 00:59:13;;;;;;;3.23;1.40;;;10.50;99.90;;;;;;5053102;28;20266;-60
2022/11/07 01:01:40;;;;;;;3.57;1.40;;;10.50;99.90;;;;;;5053030;28;20222;-58
2022/11/07 01:06:51;;;;;;;2.10;1.60;;;10.50;99.90;;;;;;5052654;28;20252;-59
2022/11/07 01:09:20;;;;;;;2.57;1.33;;;10.50;99.90;;;;;;5053486;28;20220;-60
2022/11/07 01:11:49;;;;;;;3.00;1.50;;;10.50;99.90;;;;;;5053623;28;20233;-60
2022/11/07 01:14:20;;;;;;;2.80;1.80;;;10.40;99.90;;;;;;5052779;28;20209;-60
2022/11/07 01:16:46;;;;;;;2.87;1.53;;;10.40;99.90;;;;;;5052497;28;20235;-60
2022/11/07 01:19:13;;;;;;;3.40;1.60;;;10.40;99.90;;;;;;5052723;28;20209;-58
2022/11/07 01:21:41;;;;;;;3.00;1.90;;;10.40;99.90;;;;;;5052793;28;20282;-58
2022/11/07 01:24:09;;;;;;;4.77;1.63;;;10.30;99.90;;;;;;5052614;28;20553;-58
2022/11/07 01:26:37;;;;;;;3.97;1.70;;;10.30;99.90;;;;;;5052375;28;20233;-56
2022/11/07 01:29:06;;;;;;;3.00;1.23;;;10.20;99.90;;;;;;5052325;28;20263;-60
2022/11/07 01:31:32;;;;;;;1.93;1.40;;;10.20;99.90;;;;;;5052300;28;20724;-57
2022/11/07 01:33:59;;;;;;;3.97;1.77;;;10.10;99.90;;;;;;5052323;28;20239;-58
2022/11/07 01:36:26;;;;;;;4.93;1.87;;;10.10;99.90;;;;;;5052237;28;20209;-56
2022/11/07 01:38:53;;;;;;;2.43;1.50;;;10.10;99.90;;;;;;5052280;28;20209;-59
2022/11/07 01:41:24;;;;;;;1.67;1.37;;;10.10;99.90;;;;;;5051998;28;20217;-56
2022/11/07 01:44:02;;;;;;;2.80;1.47;;;10.10;99.90;;;;;;5052126;28;20212;-57
2022/11/07 01:46:32;;;;;;;2.10;1.40;;;10.10;99.90;;;;;;5051917;28;20275;-57
2022/11/07 01:49:09;;;;;;;4.83;1.37;;;10.10;99.90;;;;;;5052208;28;20212;-60
2022/11/07 01:51:41;;;;;;;5.93;1.50;;;10.00;99.90;;;;;;5051748;28;20233;-59
2022/11/07 01:54:08;;;;;;;3.20;1.43;;;10.00;99.90;;;;;;5051994;28;20205;-58
2022/11/07 01:56:39;;;;;;;2.73;1.40;;;10.00;99.90;;;;;;5051818;28;20202;-59
2022/11/07 01:59:07;;;;;;;1.60;1.20;;;10.00;99.90;;;;;;5052033;28;20652;-60
2022/11/07 02:01:36;;;;;;;2.10;1.20;;;10.00;99.90;;;;;;5052112;28;20382;-59
2022/11/07 02:04:03;;;;;;;2.23;1.30;;;10.00;99.90;;;;;;5051850;28;20205;-57
2022/11/07 02:06:37;;;;;;;1.53;1.17;;;10.00;99.90;;;;;;5051549;28;20781;-59
2022/11/07 02:09:04;;;;;;;2.90;1.13;;;9.90;99.90;;;;;;5051811;28;20217;-60
2022/11/07 02:11:31;;;;;;;2.33;1.30;;;9.90;99.90;;;;;;5051962;28;20279;-58
2022/11/07 02:13:58;;;;;;;1.50;1.27;;;9.90;99.90;;;;;;5051812;28;20209;-59
2022/11/07 02:16:26;;;;;;;2.27;1.60;;;9.90;99.90;;;;;;5051752;28;20264;-59
2022/11/07 02:18:55;;;;;;;6.17;1.40;;;9.90;99.90;;;;;;5051919;28;20209;-58
2022/11/07 02:21:33;;;;;;;4.87;1.50;;;9.90;99.90;;;;;;5051774;28;20286;-58
2022/11/07 02:24:08;;;;;;;3.17;1.53;;;9.80;99.90;;;;;;5051676;28;20212;-59
2022/11/07 02:26:38;;;;;;;1.63;1.20;;;9.80;99.90;;;;;;5051508;28;20225;-59
2022/11/07 02:29:08;;;;;;;4.77;1.63;;;9.90;99.90;;;;;;5051563;28;20214;-59
2022/11/07 02:31:35;;;;;;;3.87;1.30;;;9.90;99.90;;;;;;5051559;28;20287;-59
2022/11/07 02:34:02;;;;;;;3.87;1.50;;;9.90;99.90;;;;;;5051490;28;20251;-59
2022/11/07 02:36:28;;;;;;;2.67;1.30;;;9.90;99.90;;;;;;5051305;28;20208;-59
2022/11/07 02:38:57;;;;;;;5.10;1.13;;;9.90;99.90;;;;;;5051367;28;20259;-59
2022/11/07 02:41:26;;;;;;;3.60;1.60;;;9.90;99.90;;;;;;5051385;28;20244;-59
2022/11/07 02:43:57;;;;;;;3.03;1.43;;;9.90;99.90;;;;;;5051493;28;20205;-59
2022/11/07 02:46:25;;;;;;;3.30;1.43;;;9.90;99.90;;;;;;5051417;28;20727;-59
2022/11/07 02:48:55;;;;;;;4.23;1.37;;;9.90;99.90;;;;;;5051472;28;20206;-59
2022/11/07 02:51:22;;;;;;;5.70;1.63;;;9.90;99.90;;;;;;5051379;28;20271;-59
2022/11/07 02:53:48;;;;;;;8.70;1.60;;;10.00;99.90;;;;;;5051406;28;20206;-59
2022/11/07 02:56:15;;;;;;;6.07;1.73;;;10.00;99.90;;;;;;5051359;28;20259;-59
2022/11/07 02:58:42;;;;;;;3.10;1.70;;;10.00;99.90;;;;;;5051482;28;20213;-59
2022/11/07 03:01:11;;;;;;;3.33;1.37;;;10.00;99.90;;;;;;5051232;28;20676;-59
2022/11/07 03:03:39;;;;;;;3.97;1.57;;;10.00;99.90;;;;;;5051883;28;20210;-59
2022/11/07 03:06:07;;;;;;;2.53;1.60;;;10.00;99.90;;;;;;5055111;28;20234;-59
2022/11/07 03:08:34;;;;;;;5.83;2.13;;;10.10;99.90;;;;;;5055066;28;20305;-60
2022/11/07 03:11:01;;;;;;;4.03;1.73;;;10.10;99.90;;;;;;5055232;28;20263;-59
2022/11/07 03:13:28;;;;;;;2.27;1.40;;;10.10;99.90;;;;;;5055031;28;20217;-59
2022/11/07 03:15:55;;;;;;;2.27;1.30;;;10.20;99.90;;;;;;5054740;28;20210;-59
2022/11/07 03:18:23;;;;;;;1.50;1.10;;;10.20;99.90;;;;;;5055185;28;20292;-59
2022/11/07 03:20:50;;;;;;;5.83;1.50;;;10.20;99.90;;;;;;5055060;28;20256;-59
2022/11/07 03:23:17;;;;;;;3.57;1.60;;;10.20;99.90;;;;;;5054791;28;20716;-59
2022/11/07 03:25:43;;;;;;;3.23;1.40;;;10.30;99.90;;;;;;5054583;28;20263;-62
2022/11/07 03:28:10;;;;;;;3.70;1.50;;;10.30;99.90;;;;;;5054636;28;20201;-60
2022/11/07 03:30:36;;;;;;;4.70;1.83;;;10.20;99.90;;;;;;5054504;28;20656;-59
2022/11/07 03:33:03;;;;;;;4.87;1.60;;;10.20;99.90;;;;;;5055128;28;20275;-59
2022/11/07 03:35:31;;;;;;;2.53;1.93;;;10.20;99.90;;;;;;5054774;28;20205;-59
2022/11/07 03:37:58;;;;;;;3.70;1.60;;;10.20;99.90;;;;;;5054699;28;20255;-59
2022/11/07 03:40:24;;;;;;;5.03;1.30;;;10.20;99.90;;;;;;5054434;28;20264;-59
2022/11/07 03:42:51;;;;;;;2.70;1.57;;;10.10;99.90;;;;;;5054252;28;20307;-59
2022/11/07 03:45:18;;;;;;;2.97;1.60;;;10.10;99.90;;;;;;5054768;28;20205;-60
2022/11/07 03:47:47;;;;;;;3.97;1.70;;;10.00;99.90;;;;;;5054298;28;20233;-60
2022/11/07 03:50:15;;;;;;;5.83;1.80;;;10.10;99.90;;;;;;5054426;28;20417;-59
2022/11/07 03:52:44;;;;;;;6.47;2.20;;;10.00;99.90;;;;;;5054370;28;20571;-60
2022/11/07 03:55:11;;;;;;;5.27;1.93;;;10.00;99.90;;;;;;5054312;28;20623;-59
2022/11/07 03:57:38;;;;;;;6.10;2.27;;;10.00;99.90;;;;;;5054069;28;20622;-59
2022/11/07 04:00:06;;;;;;;6.13;1.70;;;10.00;99.90;;;;;;5054228;28;20746;-60
2022/11/07 04:02:33;;;;;;;4.07;1.50;;;10.00;99.90;;;;;;5054239;28;20226;-59
2022/11/07 04:04:59;;;;;;;4.60;1.60;;;10.00;99.90;;;;;;5054061;28;20264;-59
2022/11/07 04:07:26;;;;;;;6.00;1.47;;;10.00;99.90;;;;;;5053969;28;20225;-59
2022/11/07 04:09:54;;;;;;;7.03;2.17;;;10.00;99.90;;;;;;5053739;28;20216;-58
2022/11/07 04:17:50;;;;;;;4.13;1.60;;;10.10;99.90;;;;;;5053768;28;20197;-59
2022/11/07 04:20:16;;;;;;;4.57;1.47;;;10.10;99.90;;;;;;5053732;28;20240;-59
2022/11/07 04:22:43;;;;;;;6.23;2.10;;;10.10;99.90;;;;;;5053680;28;20283;-58
2022/11/07 04:25:11;;;;;;;6.93;1.60;;;10.10;99.90;;;;;;5053753;28;20255;-59
2022/11/07 04:27:43;;;;;;;7.27;1.73;;;10.10;99.90;;;;;;5053536;28;20229;-60
2022/11/07 04:30:23;;;;;;;3.87;1.83;;;10.10;99.90;;;;;;5053655;28;20228;-59
2022/11/07 04:32:51;;;;;;;5.43;1.50;;;10.10;99.90;;;;;;5053507;28;20312;-60
2022/11/07 04:35:19;;;;;;;7.77;1.67;;;10.10;99.90;;;;;;5053396;28;20213;-59
2022/11/07 04:37:47;;;;;;;2.97;1.63;;;10.00;99.90;;;;;;5053437;28;20259;-59
2022/11/07 04:40:16;;;;;;;4.80;1.50;;;10.10;99.90;;;;;;5053447;28;20263;-59
2022/11/07 04:42:43;;;;;;;3.40;1.80;;;10.10;99.90;;;;;;5053213;28;20291;-59
2022/11/07 04:45:11;;;;;;;3.80;1.63;;;10.00;99.90;;;;;;5053141;28;20274;-59
2022/11/07 04:47:38;;;;;;;6.60;1.70;;;10.10;99.90;;;;;;5052939;28;20260;-59
2022/11/07 04:50:05;;;;;;;5.60;1.83;;;10.00;99.90;;;;;;5053353;28;20206;-57
2022/11/07 04:52:32;;;;;;;8.57;1.83;;;10.00;99.90;;;;;;5053113;28;20765;-58
2022/11/07 04:54:59;;;;;;;7.80;1.70;;;10.00;99.90;;;;;;5053081;28;20263;-60
2022/11/07 04:57:27;;;;;;;6.47;1.87;;;10.00;99.90;;;;;;5052888;28;20208;-57
2022/11/07 04:59:54;;;;;;;5.30;2.10;;;10.00;99.90;;;;;;5052894;28;20670;-59
2022/11/07 05:02:23;;;;;;;7.77;2.00;;;10.00;99.90;;;;;;5053145;28;20765;-60
2022/11/07 05:04:50;;;;;;;7.90;2.27;;;10.00;99.90;;;;;;5052875;28;20690;-59
2022/11/07 05:07:17;;;;;;;7.20;1.53;;;10.00;99.90;;;;;;5052787;28;20320;-59
2022/11/07 05:09:44;;;;;;;6.87;1.70;;;10.00;99.90;;;;;;5052808;28;20213;-59
2022/11/07 05:12:10;;;;;;;7.80;1.73;;;10.10;99.90;;;;;;5052939;28;20291;-58
2022/11/07 05:14:38;;;;;;;6.73;1.70;;;10.10;99.90;;;;;;5052825;28;20213;-56
2022/11/07 05:17:05;;;;;;;7.83;1.67;;;10.10;99.90;;;;;;5052667;28;20221;-59
2022/11/07 05:19:32;;;;;;;7.67;2.10;;;10.10;99.90;;;;;;5052958;28;20262;-59
2022/11/07 05:24:43;;;;;;;6.30;1.70;;;10.10;99.90;;;;;;5052714;28;20596;-58
2022/11/07 05:27:17;;;;;;;5.33;1.67;;;10.00;99.90;;;;;;5051581;28;20279;-57
2022/11/07 05:29:45;;;;;;;6.27;1.60;;;10.10;99.90;;;;;;5052662;28;20587;-58
2022/11/07 05:32:11;;;;;;;7.67;1.83;;;10.10;99.90;;;;;;5052517;28;20277;-59
2022/11/07 05:34:38;;;;;;;3.83;1.37;;;10.10;99.90;;;;;;5052646;28;20213;-58
2022/11/07 05:37:07;;;;;;;4.83;2.03;;;10.10;99.90;;;;;;5052192;28;20247;-58
2022/11/07 05:39:33;;;;;;;3.93;1.60;;;10.10;99.90;;;;;;5052364;28;20206;-57
2022/11/07 05:42:01;;;;;;;4.33;2.00;;;10.20;99.90;;;;;;5052258;28;20241;-55
2022/11/07 05:44:27;;;;;;;9.47;1.77;;;10.20;99.90;;;;;;5052367;28;20652;-57
2022/11/07 05:46:56;;;;;;;4.53;1.30;;;10.20;99.90;;;;;;5051887;28;20644;-58
2022/11/07 05:49:22;;;;;;;6.30;1.63;;;10.30;99.90;;;;;;5042436;28;20264;-59
2022/11/07 05:51:49;;;;;;;4.20;1.47;;;10.30;99.90;;;;;;5030638;28;20226;-58
2022/11/07 05:54:15;;;;;;;4.23;1.63;;;10.30;99.90;;;;;;5031783;28;20210;-56
2022/11/07 05:56:43;;;;;;;7.47;1.60;;;10.30;99.90;;;;;;5031616;28;20267;-57
2022/11/07 05:59:10;;;;;;;7.97;1.80;;;10.20;99.90;;;;;;5032047;28;20202;-55
2022/11/07 06:01:37;;;;;;;6.50;1.70;;;10.20;99.90;;;;;;5031585;28;20226;-59
2022/11/07 06:04:05;;;;;;;5.00;1.63;;;10.20;99.90;;;;;;5031981;28;20272;-59
2022/11/07 06:06:32;;;;;;;6.87;1.33;;;10.30;99.90;;;;;;5030713;28;20751;-58
2022/11/07 06:08:59;;;;;;;5.07;1.80;;;10.30;99.90;;;;;;5031787;28;20217;-58
2022/11/07 06:11:25;;;;;;;5.90;1.67;;;10.30;99.90;;;;;;5031662;28;20226;-59
2022/11/07 06:13:53;;;;;;;8.43;1.50;;;10.40;99.90;;;;;;5031445;28;20210;-58
2022/11/07 06:16:20;;;;;;;5.03;1.50;;;10.40;99.90;;;;;;5031632;28;20305;-59
2022/11/07 06:18:47;;;;;;;6.47;1.70;;;10.40;99.90;;;;;;5031294;28;20198;-58
2022/11/07 06:21:15;;;;;;;3.00;1.33;;;10.40;99.90;;;;;;5031375;28;20264;-59
2022/11/07 06:23:42;;;;;;;5.70;1.63;;;10.40;99.90;;;;;;5039938;28;20202;-56
2022/11/07 06:26:09;;;;;;;7.43;1.90;;;10.40;99.90;;;;;;5031390;28;20269;-58
2022/11/07 06:28:36;;;;;;;6.00;1.83;;;10.50;99.90;;;;;;5031151;28;20229;-57
2022/11/07 06:31:04;;;;;;;4.83;1.87;;;10.60;99.90;;;;;;5031382;28;20202;-58
2022/11/07 06:33:32;;;;;;;4.10;1.70;;;10.60;99.90;;;;;;5030991;28;20245;-58
2022/11/07 06:36:06;;;;;;;5.03;1.67;;;10.70;99.90;;;;;;5030931;28;20210;-56
2022/11/07 06:38:34;;;;;;;4.50;1.60;;;10.70;99.90;;;;;;5031597;28;20264;-61
2022/11/07 06:41:05;;;;;;;5.57;1.50;;;10.80;99.90;;;;;;5035432;28;20564;-59
2022/11/07 06:43:33;;;;;;;6.40;1.80;;;10.90;99.90;;;;;;5035259;28;20217;-57
2022/11/07 06:46:03;;;;;;;7.70;1.80;;;10.90;99.90;;;;;;5034898;28;20206;-53
2022/11/07 06:48:29;;;;;;;5.23;1.77;;;10.90;99.90;;;;;;5035710;28;20304;-59
2022/11/07 06:50:57;;;;;;;4.73;1.80;;;11.00;99.90;;;;;;5034775;28;20696;-62
2022/11/07 06:53:24;;;;;;;5.53;1.67;;;11.00;99.90;;;;;;5035341;28;20232;-58
2022/11/07 06:55:53;;;;;;;6.30;1.50;;;11.10;99.90;;;;;;5034852;28;20209;-60
2022/11/07 06:58:19;;;;;;;3.57;1.20;;;11.20;99.90;;;;;;5035171;28;20198;-61
2022/11/07 07:00:46;;;;;;;8.37;2.20;;;11.20;99.90;;;;;;5034622;28;20218;-62
2022/11/07 07:03:13;;;;;;;6.20;1.40;;;11.20;99.90;;;;;;5034906;28;20226;-62
2022/11/07 07:05:39;;;;;;;11.97;1.70;;;11.20;99.90;;;;;;5034615;28;20206;-61
2022/11/07 07:08:07;;;;;;;8.90;2.13;;;11.30;99.90;;;;;;5034821;28;20234;-58
2022/11/07 07:10:36;;;;;;;5.77;1.60;;;11.30;99.90;;;;;;5035094;28;20214;-57
2022/11/07 07:13:04;;;;;;;11.43;1.87;;;11.30;99.90;;;;;;5034305;28;20886;-61
2022/11/07 07:15:32;;;;;;;7.83;2.20;;;11.30;99.90;;;;;;5034459;28;20264;-61
2022/11/07 07:17:59;;;;;;;5.83;1.63;;;11.40;99.90;;;;;;5034215;28;20289;-55
2022/11/07 07:20:26;;;;;;;10.20;2.17;;;11.40;99.90;;;;;;5034605;28;20257;-59
2022/11/07 07:22:53;;;;;;;9.10;1.40;;;11.40;99.90;;;;;;5034251;28;20304;-58
2022/11/07 07:25:20;;;;;;;6.00;1.50;;;11.50;99.90;;;;;;5034517;28;20206;-56
2022/11/07 07:27:47;;;;;;;7.73;1.57;;;11.50;99.90;;;;;;5033528;28;20222;-54
2022/11/07 07:30:15;;;;;;;5.57;1.80;;;11.50;99.90;;;;;;5034256;28;20210;-58
2022/11/07 07:32:42;;;;;;;3.20;1.40;;;11.60;99.90;;;;;;5034094;28;20273;-63
2022/11/07 07:35:09;;;;;;;3.97;1.40;;;11.60;99.90;;;;;;5034446;28;20222;-62
2022/11/07 07:37:36;;;;;;;5.87;1.60;;;11.60;99.90;;;;;;5016141;28;20302;-64
2022/11/07 07:40:03;;;;;;;5.13;1.33;;;11.60;99.90;;;;;;5013756;28;20216;-64
2022/11/07 07:42:29;;;;;;;8.80;1.63;;;11.70;99.90;;;;;;5013878;28;20242;-64
2022/11/07 07:44:56;;;;;;;6.43;2.10;;;11.70;99.90;;;;;;5013437;28;20716;-65
2022/11/07 07:47:24;;;;;;;3.57;1.60;;;11.70;98.40;;;;;;5013452;28;20227;-65
2022/11/07 07:49:51;;;;;;;5.87;1.90;;;11.80;98.10;;;;;;5025145;28;20206;-65
2022/11/07 07:52:17;;;;;;;6.27;1.93;;;11.80;98.60;;;;;;5033881;28;20604;-65
2022/11/07 07:54:44;;;;;;;9.17;1.80;;;11.80;99.80;;;;;;5033463;28;20214;-65
2022/11/07 07:57:11;;;;;;;5.37;1.67;;;11.80;97.10;;;;;;5033192;28;20218;-62
2022/11/07 07:59:37;;;;;;;5.70;1.60;;;11.80;94.40;;;;;;5033746;28;20221;-64
2022/11/07 08:02:04;;;;;;;5.60;1.80;;;11.90;98.00;;;;;;5033221;28;20230;-60
2022/11/07 08:04:32;;;;;;;4.50;1.43;;;11.90;97.70;;;;;;5033752;28;20207;-59
2022/11/07 08:06:58;;;;;;;5.30;1.50;;;11.90;98.70;;;;;;5033029;28;20286;-59
2022/11/07 08:09:25;;;;;;;7.20;1.70;;;12.00;97.00;;;;;;5033412;28;20291;-60
2022/11/07 08:11:52;;;;;;;10.60;1.43;;;12.00;94.40;;;;;;5032701;28;20241;-60
2022/11/07 08:14:18;;;;;;;7.23;1.80;;;12.10;95.00;;;;;;5033677;28;20276;-62
2022/11/07 08:16:45;;;;;;;7.07;1.53;;;12.10;95.60;;;;;;5032942;28;20257;-64
2022/11/07 08:19:12;;;;;;;7.03;1.70;;;12.10;98.70;;;;;;5033271;28;20198;-63
2022/11/07 08:21:40;;;;;;;4.77;1.37;;;12.20;98.20;;;;;;5033443;28;20587;-62
2022/11/07 08:24:08;;;;;;;6.27;1.70;;;12.20;98.80;;;;;;5032566;28;20213;-63
2022/11/07 08:26:36;;;;;;;6.97;1.33;;;12.30;96.90;;;;;;5033071;28;20210;-64
2022/11/07 08:29:02;;;;;;;5.53;1.63;;;12.30;98.10;;;;;;5032818;28;20268;-63
2022/11/07 08:31:29;;;;;;;4.43;1.80;;;12.30;98.10;;;;;;5033226;28;20230;-62
2022/11/07 08:33:58;;;;;;;4.00;1.50;;;12.30;99.90;;;;;;5032642;28;20212;-61
2022/11/07 08:36:25;;;;;;;9.63;1.60;;;12.30;98.60;;;;;;5032929;28;20295;-61
2022/11/07 08:38:53;;;;;;;7.33;2.00;;;12.30;99.90;;;;;;5032704;28;20207;-60
2022/11/07 08:41:21;;;;;;;7.33;1.70;;;12.20;99.90;;;;;;5032809;28;20274;-61
2022/11/07 08:43:48;;;;;;;4.77;1.67;;;12.20;99.90;;;;;;5033014;28;20215;-62
2022/11/07 08:46:15;;;;;;;9.47;1.90;;;12.20;99.90;;;;;;5032016;28;20297;-63
2022/11/07 08:48:42;;;;;;;5.13;1.60;;;12.30;99.90;;;;;;5032575;28;20592;-62
2022/11/07 08:51:09;;;;;;;12.20;1.63;;;12.30;99.90;;;;;;5023087;28;20205;-61
2022/11/07 08:53:36;;;;;;;4.47;1.33;;;12.20;99.90;;;;;;5032692;28;20210;-61
2022/11/07 08:56:05;;;;;;;12.73;1.90;;;12.30;99.90;;;;;;5031963;28;20244;-61
2022/11/07 08:58:32;;;;;;;9.23;1.70;;;12.30;99.90;;;;;;5031880;28;20201;-62
2022/11/07 09:00:59;;;;;;;7.67;1.77;;;12.40;99.90;;;;;;5032183;28;20265;-61
2022/11/07 09:03:26;;;;;;;9.90;2.03;;;12.30;99.90;;;;;;5031453;28;20228;-60
2022/11/07 09:05:53;;;;;;;7.10;1.77;;;12.30;99.90;;;;;;5032076;28;20236;-61
2022/11/07 09:08:20;;;;;;;4.83;1.40;;;12.40;99.90;;;;;;5031899;28;20597;-62
2022/11/07 09:10:46;;;;;;;9.03;2.37;;;12.40;99.90;;;;;;5032692;28;20598;-61
2022/11/07 09:13:14;;;;;;;13.23;1.87;;;12.50;99.90;;;;;;5031405;28;20781;-61
2022/11/07 09:15:41;;;;;;;12.53;1.93;;;12.50;99.90;;;;;;5032268;28;20210;-61
2022/11/07 09:18:08;;;;;;;7.07;3.10;;;12.60;99.90;;;;;;5031115;28;20727;-61
2022/11/07 09:20:34;;;;;;;5.03;1.87;;;12.60;99.90;;;;;;5031917;28;20216;-59
2022/11/07 09:23:01;;;;;;;9.50;2.17;;;12.60;99.90;;;;;;5032273;28;20233;-64
2022/11/07 09:25:28;;;;;;;5.37;1.70;;;12.60;99.90;;;;;;5031597;28;20216;-62
2022/11/07 09:27:54;;;;;;;6.93;1.70;;;12.60;99.90;;;;;;5031813;28;20313;-67
2022/11/07 09:30:23;;;;;;;7.10;1.70;;;12.70;99.90;;;;;;5031899;28;20305;-63
2022/11/07 09:32:49;;;;;;;5.33;1.50;;;12.80;99.90;;;;;;5033967;28;20567;-64
2022/11/07 09:35:16;;;;;;;5.53;1.63;;;12.90;99.90;;;;;;5032087;28;20573;-64
2022/11/07 09:37:43;;;;;;;7.80;1.50;;;12.90;99.90;;;;;;5031942;28;20202;-59
2022/11/07 09:40:21;;;;;;;8.00;1.70;;;13.00;99.90;;;;;;5031856;28;20213;-59
2022/11/07 09:42:57;;;;;;;6.20;1.67;;;13.10;99.90;;;;;;5031712;28;20260;-60
2022/11/07 09:45:25;;;;;;;5.27;1.60;;;13.10;99.90;;;;;;5031462;28;20558;-59
2022/11/07 09:47:59;;;;;;;5.63;1.80;;;13.10;99.90;;;;;;5031016;28;20214;-61
2022/11/07 09:50:31;;;;;;;6.67;1.70;;;13.20;99.90;;;;;;5048901;28;20201;-59
2022/11/07 09:53:03;;;;;;;5.73;1.73;;;13.20;99.90;;;;;;5051206;28;20229;-60
2022/11/07 09:55:33;;;;;;;6.27;2.00;;;13.10;99.90;;;;;;5051438;28;20228;-59
2022/11/07 09:58:02;;;;;;;6.03;1.90;;;13.00;99.90;;;;;;5050440;28;20590;-61
2022/11/07 10:00:32;;;;;;;11.67;2.40;;;13.00;99.90;;;;;;5051548;28;20662;-60
2022/11/07 10:03:00;;;;;;;10.03;1.70;;;13.10;99.90;;;;;;5051033;28;20582;-62
2022/11/07 10:05:34;;;;;;;7.07;2.10;;;13.00;99.90;;;;;;5051207;28;20684;-61
2022/11/07 10:08:09;;;;;;;8.40;1.67;;;12.90;99.90;;;;;;5050400;28;20232;-60
2022/11/07 10:10:42;;;;;;;7.83;1.53;;;12.90;99.90;;;;;;5044628;28;20641;-59
2022/11/07 10:13:27;;;;;;;7.33;1.67;;;12.80;99.90;;;;;;5022428;28;20233;-60
2022/11/07 10:16:03;;;;;;;8.03;1.87;;;12.70;99.90;;;;;;5030969;28;20667;-61
2022/11/07 10:18:45;;;;;;;6.97;1.80;;;12.60;99.90;;;;;;5031264;28;20201;-60
2022/11/07 10:21:21;;;;;;;9.83;2.17;;;12.40;99.90;;;;;;5046101;28;20266;-60
2022/11/07 10:24:02;;;;;;;6.03;1.80;;;12.30;99.90;;;;;;5051530;28;20300;-63
2022/11/07 10:26:30;;;;;;;7.53;1.77;;;12.00;99.90;;;;;;5043186;28;20206;-63
2022/11/07 10:29:00;;;;;;;5.93;1.80;;;12.00;99.90;;;;;;5031044;28;20226;-67
2022/11/07 10:31:36;;;;;;;5.93;2.10;;;12.00;99.90;;;;;;5030281;28;20236;-62
2022/11/07 10:34:09;;;;;;;4.97;2.27;;;11.90;99.90;;;;;;5031237;28;20216;-61
2022/11/07 10:36:36;;;;;;;3.80;1.90;;;11.80;99.90;;;;;;5030514;28;20234;-54
2022/11/07 10:39:12;;;;;;;7.07;2.10;;;11.80;99.90;;;;;;5031059;28;20256;-60
2022/11/07 10:41:40;;;;;;;5.57;1.83;;;11.80;99.90;;;;;;5029361;28;20261;-60
2022/11/07 10:44:11;;;;;;;6.90;2.20;;;11.80;99.90;;;;;;5030959;28;20653;-57
2022/11/07 10:46:41;;;;;;;5.50;2.40;;;11.70;99.90;;;;;;5030826;28;20249;-60
2022/11/07 10:49:19;;;;;;;4.53;2.07;;;11.70;99.90;;;;;;5030749;28;20229;-60
2022/11/07 10:51:46;;;;;;;4.77;2.60;;;11.70;99.90;;;;;;5031080;28;20230;-61
2022/11/07 10:54:20;;;;;;;5.43;2.67;;;11.60;99.90;;;;;;5030311;28;20222;-59
2022/11/07 10:56:50;;;;;;;5.27;2.33;;;11.60;99.90;;;;;;5030631;28;20205;-63
2022/11/07 10:59:24;;;;;;;6.03;2.47;;;11.60;99.90;;;;;;5030148;28;20209;-62
2022/11/07 11:01:54;;;;;;;8.47;3.00;;;11.70;99.90;;;;;;5030951;28;20371;-60
2022/11/07 11:04:21;;;;;;;11.77;3.03;;;11.70;99.90;;;;;;5030390;28;20213;-59
2022/11/07 11:06:57;;;;;;;9.93;3.07;;;11.80;99.90;;;;;;5030128;28;20214;-61
2022/11/07 11:09:29;;;;;;;9.80;2.93;;;11.90;99.90;;;;;;5029934;28;20766;-61
2022/11/07 11:11:56;;;;;;;6.07;2.63;;;11.90;99.90;;;;;;5022156;28;20229;-59
2022/11/07 11:14:23;;;;;;;8.37;2.47;;;11.90;99.90;;;;;;5022803;28;20213;-59
2022/11/07 11:16:55;;;;;;;12.23;2.67;;;12.00;99.90;;;;;;5030306;28;20211;-57
2022/11/07 11:19:24;;;;;;;8.60;2.90;;;12.00;99.90;;;;;;5030309;28;20289;-63
2022/11/07 11:21:53;;;;;;;9.47;3.43;;;12.10;99.90;;;;;;5030164;28;20230;-61
2022/11/07 11:24:31;;;;;;;10.80;2.50;;;12.10;99.90;;;;;;5030603;28;20210;-60
2022/11/07 11:27:03;;;;;;;9.40;2.30;;;12.20;99.90;;;;;;5033501;28;20260;-63
2022/11/07 11:29:36;;;;;;;10.37;2.33;;;12.20;99.90;;;;;;5033600;28;20232;-59
2022/11/07 11:32:05;;;;;;;6.37;2.27;;;12.20;99.90;;;;;;5033888;28;20574;-59
2022/11/07 11:34:41;;;;;;;8.70;2.13;;;12.30;99.90;;;;;;5034109;28;20205;-59
2022/11/07 11:37:13;;;;;;;3.43;2.00;;;12.40;99.90;;;;;;5033697;28;20262;-59
2022/11/07 11:39:45;;;;;;;10.30;2.50;;;12.50;99.90;;;;;;5033826;28;20208;-59
2022/11/07 11:42:26;;;;;;;8.23;2.00;;;12.70;99.90;;;;;;5033331;28;20812;-57
2022/11/07 11:44:58;;;;;;;8.07;2.33;;;12.80;99.90;;;;;;5032851;28;20206;-59
2022/11/07 11:47:34;;;;;;;9.63;2.27;;;13.00;99.90;;;;;;5033755;28;20661;-59
2022/11/07 11:50:04;;;;;;;6.87;1.90;;;13.10;99.90;;;;;;5033093;28;20222;-61
2022/11/07 11:52:31;;;;;;;6.63;1.87;;;13.20;99.90;;;;;;5033563;28;20226;-62
2022/11/07 11:55:00;;;;;;;6.97;2.00;;;13.30;99.90;;;;;;5033199;28;20218;-62
2022/11/07 11:57:32;;;;;;;6.27;1.90;;;13.20;99.90;;;;;;5033512;28;20595;-63
2022/11/07 12:00:09;;;;;;;6.27;2.13;;;13.20;99.90;;;;;;5035264;28;20204;-62
2022/11/07 12:02:49;;;;;;;11.40;2.50;;;13.20;99.90;;;;;;5053379;28;20256;-61
2022/11/07 12:05:34;;;;;;;5.83;2.20;;;13.20;99.90;;;;;;5053377;28;20298;-59
2022/11/07 12:08:14;;;;;;;7.67;2.30;;;13.20;99.90;;;;;;5052886;28;20275;-58
2022/11/07 12:10:49;;;;;;;7.80;2.50;;;13.20;99.90;;;;;;5053258;28;20336;-61
2022/11/07 12:13:22;;;;;;;11.90;3.03;;;13.10;99.90;;;;;;5053245;28;20233;-63
2022/11/07 12:16:01;;;;;;;9.80;1.90;;;13.20;99.90;;;;;;5053125;28;20209;-60
2022/11/07 12:18:39;;;;;;;7.03;2.20;;;13.10;99.90;;;;;;5053325;28;20213;-57
2022/11/07 12:21:18;;;;;;;5.37;1.83;;;13.20;99.90;;;;;;5053308;28;20210;-59
2022/11/07 12:23:56;;;;;;;7.23;2.40;;;13.10;99.90;;;;;;5052626;28;20208;-57
2022/11/07 12:26:29;;;;;;;9.63;2.60;;;13.20;99.90;;;;;;5053250;28;20236;-57
2022/11/07 12:29:06;;;;;;;7.80;2.40;;;13.10;99.90;;;;;;5052519;28;20647;-58
2022/11/07 12:31:43;;;;;;;8.00;2.17;;;13.20;99.90;;;;;;5052802;28;20295;-56
2022/11/07 12:34:22;;;;;;;7.00;2.13;;;13.30;99.90;;;;;;5052396;28;20740;-60
2022/11/07 12:37:06;;;;;;;6.93;2.47;;;13.50;99.90;;;;;;5052905;28;20213;-60
2022/11/07 12:39:43;;;;;;;10.97;2.63;;;13.70;99.90;;;;;;5051802;28;20202;-58
2022/11/07 12:42:22;;;;;;;10.73;2.23;;;13.70;99.90;;;;;;5052708;28;20233;-56
2022/11/07 12:45:01;;;;;;;7.87;2.10;;;13.80;99.90;;;;;;5052314;28;20209;-60
2022/11/07 12:47:46;;;;;;;9.27;2.10;;;13.90;99.90;;;;;;5049720;28;20205;-60
2022/11/07 12:50:23;;;;;;;9.23;2.13;;;14.00;99.90;;;;;;5027035;28;20222;-60
2022/11/07 12:53:06;;;;;;;7.70;2.63;;;14.10;99.90;;;;;;5033017;28;20229;-60
2022/11/07 12:55:40;;;;;;;11.97;1.90;;;14.10;99.90;;;;;;5032424;28;20309;-61
2022/11/07 12:58:15;;;;;;;8.87;1.93;;;14.20;99.90;;;;;;5032274;28;20655;-60
2022/11/07 13:00:43;;;;;;;8.77;1.73;;;14.40;99.90;;;;;;5032239;28;20209;-60
2022/11/07 13:03:42;;;;;;;6.17;1.30;;;14.40;99.90;;;;;;5032503;28;20321;-64
2022/11/07 13:06:18;;;;;;;7.57;1.67;;;14.50;99.90;;;;;;5032124;28;20538;-60
2022/11/07 13:08:53;;;;;;;9.17;2.43;;;14.60;99.90;;;;;;5036700;28;20676;-59